createdAt,value
2023-04-21T00:00:14.662Z,99.90
2023-04-21T00:02:42.174Z,99.90
2023-04-21T00:05:10.907Z,99.90
2023-04-21T00:07:39.441Z,99.90
2023-04-21T00:10:08.653Z,99.90
2023-04-21T00:12:36.145Z,99.90
2023-04-21T00:15:04.559Z,99.90
2023-04-21T00:17:31.796Z,99.90
2023-04-21T00:19:59.722Z,99.90
2023-04-21T00:22:27.010Z,99.90
2023-04-21T00:24:54.221Z,99.90
2023-04-21T00:27:21.617Z,99.90
2023-04-21T00:29:48.868Z,99.90
2023-04-21T00:32:16.230Z,99.90
2023-04-21T00:34:43.481Z,99.90
2023-04-21T00:37:12.563Z,99.90
2023-04-21T00:39:40.219Z,99.90
2023-04-21T00:42:07.666Z,99.90
2023-04-21T00:44:36.316Z,99.90
2023-04-21T00:47:04.743Z,99.90
2023-04-21T00:49:32.448Z,99.90
2023-04-21T00:51:59.842Z,99.90
2023-04-21T00:54:27.853Z,99.90
2023-04-21T00:56:55.547Z,99.90
2023-04-21T00:59:22.862Z,99.90
2023-04-21T01:01:52.783Z,99.90
2023-04-21T01:04:21.838Z,99.90
2023-04-21T01:06:49.535Z,99.90
2023-04-21T01:09:17.682Z,99.90
2023-04-21T01:12:05.279Z,99.90
2023-04-21T01:14:36.204Z,99.90
2023-04-21T01:17:07.844Z,99.90
2023-04-21T01:19:42.869Z,99.90
2023-04-21T01:22:11.787Z,99.90
2023-04-21T01:24:41.470Z,99.90
2023-04-21T01:27:21.227Z,99.90
2023-04-21T01:29:51.777Z,99.90
2023-04-21T01:32:22.931Z,99.90
2023-04-21T01:34:53.828Z,99.90
2023-04-21T01:37:24.086Z,99.90
2023-04-21T01:39:55.017Z,99.90
2023-04-21T01:42:24.799Z,99.90
2023-04-21T01:44:53.838Z,99.90
2023-04-21T01:47:22.017Z,99.90
2023-04-21T01:49:49.380Z,99.90
2023-04-21T01:52:16.823Z,99.90
2023-04-21T01:54:44.228Z,99.90
2023-04-21T01:57:11.909Z,99.90
2023-04-21T01:59:40.501Z,99.90
2023-04-21T02:02:08.024Z,99.90
2023-04-21T02:04:36.176Z,99.90
2023-04-21T02:07:03.555Z,99.90
2023-04-21T02:09:31.618Z,99.90
2023-04-21T02:11:59.073Z,99.90
2023-04-21T02:14:26.865Z,99.90
2023-04-21T02:16:56.079Z,99.90
2023-04-21T02:19:24.289Z,99.90
2023-04-21T02:21:51.657Z,99.90
2023-04-21T02:24:22.460Z,99.90
2023-04-21T02:26:49.769Z,99.90
2023-04-21T02:29:17.148Z,99.90
2023-04-21T02:31:57.873Z,99.90
2023-04-21T02:34:28.511Z,99.90
2023-04-21T02:36:55.899Z,99.90
2023-04-21T02:39:23.208Z,99.90
2023-04-21T02:41:50.497Z,99.90
2023-04-21T02:44:17.915Z,99.90
2023-04-21T02:46:45.769Z,99.90
2023-04-21T02:49:13.576Z,99.90
2023-04-21T02:51:40.999Z,99.90
2023-04-21T02:54:08.340Z,99.90
2023-04-21T02:56:35.816Z,99.90
2023-04-21T02:59:03.034Z,99.90
2023-04-21T03:01:30.333Z,99.90
2023-04-21T03:03:57.689Z,99.90
2023-04-21T03:06:25.275Z,99.90
2023-04-21T03:08:52.469Z,99.90
2023-04-21T03:11:19.722Z,99.90
2023-04-21T03:13:47.050Z,99.90
2023-04-21T03:16:14.439Z,99.90
2023-04-21T03:18:44.601Z,99.90
2023-04-21T03:21:13.242Z,99.90
2023-04-21T03:23:40.527Z,99.90
2023-04-21T03:26:08.628Z,99.90
2023-04-21T03:28:36.040Z,99.90
2023-04-21T03:31:03.643Z,99.90
2023-04-21T03:33:30.905Z,99.90
2023-04-21T03:35:58.987Z,99.90
2023-04-21T03:38:30.412Z,99.90
2023-04-21T03:40:57.684Z,99.90
2023-04-21T03:43:24.933Z,99.90
2023-04-21T03:45:52.364Z,99.90
2023-04-21T03:48:19.745Z,99.90
2023-04-21T03:50:47.050Z,99.90
2023-04-21T03:53:14.407Z,99.90
2023-04-21T03:55:41.853Z,99.90
2023-04-21T03:58:09.109Z,99.90
2023-04-21T04:00:36.490Z,99.90
2023-04-21T04:03:03.958Z,99.90
2023-04-21T04:05:31.546Z,99.90
2023-04-21T04:07:59.017Z,99.90
2023-04-21T04:10:26.316Z,99.90
2023-04-21T04:12:55.149Z,99.90
2023-04-21T04:15:22.521Z,99.90
2023-04-21T04:17:49.814Z,99.90
2023-04-21T04:20:17.162Z,99.90
2023-04-21T04:22:44.476Z,99.90
2023-04-21T04:25:12.875Z,99.90
2023-04-21T04:27:40.470Z,99.90
2023-04-21T04:30:08.652Z,99.90
2023-04-21T04:32:38.093Z,99.90
2023-04-21T04:35:06.548Z,99.90
2023-04-21T04:37:36.847Z,99.90
2023-04-21T04:40:06.315Z,99.90
2023-04-21T04:42:34.698Z,99.90
2023-04-21T04:45:02.651Z,99.90
2023-04-21T04:47:30.039Z,99.90
2023-04-21T04:49:57.221Z,99.90
2023-04-21T04:52:26.334Z,99.90
2023-04-21T04:54:53.639Z,99.90
2023-04-21T04:57:20.876Z,99.90
2023-04-21T04:59:48.101Z,99.90
2023-04-21T05:02:41.256Z,99.90
2023-04-21T05:05:09.054Z,99.90
2023-04-21T05:07:36.725Z,99.90
2023-04-21T05:10:04.682Z,99.90
2023-04-21T05:12:34.683Z,99.90
2023-04-21T05:15:02.364Z,99.90
2023-04-21T05:17:31.109Z,99.90
2023-04-21T05:19:58.612Z,99.90
2023-04-21T05:22:26.302Z,99.90
2023-04-21T05:24:53.923Z,99.90
2023-04-21T05:27:21.332Z,99.90
2023-04-21T05:29:48.926Z,99.90
2023-04-21T05:32:16.410Z,99.90
2023-04-21T05:34:43.825Z,99.90
2023-04-21T05:37:14.866Z,99.90
2023-04-21T05:39:42.274Z,99.90
2023-04-21T05:42:12.746Z,99.90
2023-04-21T05:44:40.159Z,99.90
2023-04-21T05:47:08.010Z,99.90
2023-04-21T05:49:35.423Z,99.90
2023-04-21T05:52:02.838Z,99.90
2023-04-21T05:54:30.108Z,99.90
2023-04-21T05:56:57.383Z,99.90
2023-04-21T05:59:26.352Z,99.90
2023-04-21T06:01:53.600Z,99.90
2023-04-21T06:04:21.247Z,99.90
2023-04-21T06:06:48.862Z,99.90
2023-04-21T06:09:16.139Z,99.90
2023-04-21T06:11:43.381Z,99.90
2023-04-21T06:14:10.830Z,99.90
2023-04-21T06:16:38.273Z,99.90
2023-04-21T06:19:05.780Z,99.90
2023-04-21T06:21:33.237Z,99.90
2023-04-21T06:24:00.629Z,99.90
2023-04-21T06:26:27.890Z,99.90
2023-04-21T06:28:55.142Z,99.90
2023-04-21T06:31:22.504Z,99.90
2023-04-21T06:33:49.832Z,99.90
2023-04-21T06:36:18.155Z,99.90
2023-04-21T06:38:45.929Z,99.90
2023-04-21T06:41:13.299Z,99.90
2023-04-21T06:43:41.000Z,99.90
2023-04-21T06:46:08.604Z,99.90
2023-04-21T06:48:35.928Z,99.90
2023-04-21T06:51:03.276Z,99.90
2023-04-21T06:53:30.681Z,99.90
2023-04-21T06:55:57.999Z,99.90
2023-04-21T06:58:25.471Z,99.90
2023-04-21T07:00:52.800Z,99.90
2023-04-21T07:03:20.187Z,99.90
2023-04-21T07:05:47.772Z,99.90
2023-04-21T07:08:15.077Z,99.90
2023-04-21T07:10:42.410Z,99.90
2023-04-21T07:13:10.234Z,99.90
2023-04-21T07:15:37.671Z,99.90
2023-04-21T07:18:04.978Z,99.90
2023-04-21T07:20:32.336Z,99.90
2023-04-21T07:22:59.617Z,99.90
2023-04-21T07:25:26.952Z,99.90
2023-04-21T07:27:54.279Z,99.90
2023-04-21T07:30:21.806Z,99.90
2023-04-21T07:32:49.303Z,99.90
2023-04-21T07:35:17.025Z,99.90
2023-04-21T07:37:44.619Z,99.90
2023-04-21T07:40:12.302Z,99.90
2023-04-21T07:42:39.783Z,99.90
2023-04-21T07:45:07.628Z,99.90
2023-04-21T07:47:35.391Z,99.90
2023-04-21T07:50:02.777Z,99.90
2023-04-21T07:52:30.392Z,99.90
2023-04-21T07:54:57.699Z,99.90
2023-04-21T07:57:25.240Z,99.90
2023-04-21T07:59:52.659Z,99.90
2023-04-21T08:02:20.047Z,99.90
2023-04-21T08:04:47.460Z,99.90
2023-04-21T08:07:15.817Z,99.90
2023-04-21T08:09:43.362Z,99.90
2023-04-21T08:12:10.619Z,99.90
2023-04-21T08:14:38.001Z,99.90
2023-04-21T08:17:05.400Z,99.90
2023-04-21T08:19:32.832Z,99.90
2023-04-21T08:22:00.789Z,99.90
2023-04-21T08:24:28.293Z,99.90
2023-04-21T08:26:55.964Z,99.90
2023-04-21T08:29:23.710Z,99.90
2023-04-21T08:31:51.142Z,99.90
2023-04-21T08:34:21.001Z,99.90
2023-04-21T08:36:49.435Z,99.90
2023-04-21T08:39:17.030Z,99.90
2023-04-21T08:41:44.458Z,99.90
2023-04-21T08:44:11.938Z,99.90
2023-04-21T08:46:40.256Z,99.90
2023-04-21T08:49:10.001Z,99.90
2023-04-21T08:51:37.481Z,99.90
2023-04-21T08:54:05.422Z,99.90
2023-04-21T08:56:32.702Z,99.90
2023-04-21T08:59:00.116Z,99.90
2023-04-21T09:01:27.555Z,99.90
2023-04-21T09:04:14.850Z,99.90
2023-04-21T09:06:46.344Z,99.90
2023-04-21T09:09:13.848Z,99.90
2023-04-21T09:11:41.277Z,99.90
2023-04-21T09:14:09.816Z,99.90
2023-04-21T09:16:37.134Z,99.90
2023-04-21T09:19:15.350Z,99.90
2023-04-21T09:21:44.454Z,99.90
2023-04-21T09:24:13.144Z,99.90
2023-04-21T09:26:42.860Z,99.90
2023-04-21T09:29:10.400Z,99.90
2023-04-21T09:31:38.014Z,99.90
2023-04-21T09:34:26.498Z,99.90
2023-04-21T09:37:01.718Z,99.90
2023-04-21T09:39:43.149Z,99.90
2023-04-21T09:42:18.797Z,99.90
2023-04-21T09:44:52.493Z,99.90
2023-04-21T09:47:30.753Z,99.90
2023-04-21T09:49:59.123Z,99.90
2023-04-21T09:52:30.112Z,99.90
2023-04-21T09:55:04.316Z,99.90
2023-04-21T09:57:32.877Z,99.90
2023-04-21T10:00:12.131Z,99.90
2023-04-21T10:02:49.930Z,99.90
2023-04-21T10:05:17.822Z,99.90
2023-04-21T10:07:46.368Z,99.90
2023-04-21T10:10:21.306Z,99.90
2023-04-21T10:12:49.220Z,99.90
2023-04-21T10:15:30.754Z,99.90
2023-04-21T10:18:25.413Z,99.90
2023-04-21T10:21:02.107Z,99.90
2023-04-21T10:23:30.970Z,99.90
2023-04-21T10:26:07.088Z,99.90
2023-04-21T10:28:44.963Z,99.90
2023-04-21T10:31:29.894Z,99.90
2023-04-21T10:34:17.309Z,99.90
2023-04-21T10:36:56.602Z,99.90
2023-04-21T10:39:27.069Z,99.90
2023-04-21T10:42:12.959Z,99.90
2023-04-21T10:44:44.307Z,99.90
2023-04-21T10:47:11.864Z,99.90
2023-04-21T10:49:40.887Z,99.90
2023-04-21T10:52:09.912Z,99.90
2023-04-21T10:55:00.450Z,99.90
2023-04-21T10:57:32.700Z,99.90
2023-04-21T11:00:00.793Z,99.90
2023-04-21T11:02:28.308Z,99.90
2023-04-21T11:04:56.299Z,99.90
2023-04-21T11:07:24.407Z,99.90
2023-04-21T11:10:06.625Z,99.90
2023-04-21T11:12:39.552Z,99.90
2023-04-21T11:15:09.688Z,99.90
2023-04-21T11:17:43.220Z,99.90
2023-04-21T11:20:10.857Z,99.90
2023-04-21T11:22:38.776Z,99.90
2023-04-21T11:25:16.404Z,99.90
2023-04-21T11:27:56.839Z,99.90
2023-04-21T11:30:34.859Z,99.90
2023-04-21T11:33:02.728Z,99.90
2023-04-21T11:35:31.776Z,99.90
2023-04-21T11:38:04.181Z,99.90
2023-04-21T11:40:47.932Z,99.90
2023-04-21T11:43:15.669Z,99.90
2023-04-21T11:45:43.104Z,99.90
2023-04-21T11:48:17.505Z,99.90
2023-04-21T11:50:49.619Z,99.90
2023-04-21T11:53:17.285Z,99.90
2023-04-21T11:55:46.598Z,99.90
2023-04-21T11:58:16.464Z,99.90
2023-04-21T12:00:47.275Z,99.90
2023-04-21T12:03:15.069Z,99.90
2023-04-21T12:05:42.834Z,99.90
2023-04-21T12:08:16.722Z,99.90
2023-04-21T12:10:48.636Z,99.60
2023-04-21T12:13:27.399Z,99.70
2023-04-21T12:15:54.920Z,99.10
2023-04-21T12:18:26.976Z,99.00
2023-04-21T12:20:55.426Z,98.90
2023-04-21T12:23:22.845Z,99.00
2023-04-21T12:25:51.297Z,99.10
2023-04-21T12:28:18.720Z,99.30
2023-04-21T12:30:48.440Z,99.10
2023-04-21T12:33:16.002Z,98.70
2023-04-21T12:35:43.486Z,98.70
2023-04-21T12:38:11.094Z,98.30
2023-04-21T12:40:38.610Z,98.40
2023-04-21T12:43:05.858Z,97.60
2023-04-21T12:45:33.217Z,97.30
2023-04-21T12:48:00.939Z,97.20
2023-04-21T12:50:29.629Z,97.40
2023-04-21T12:52:56.952Z,97.20
2023-04-21T12:55:24.343Z,97.10
2023-04-21T12:57:52.763Z,97.20
2023-04-21T13:00:20.575Z,96.50
2023-04-21T13:02:47.931Z,96.50
2023-04-21T13:05:15.285Z,96.90
2023-04-21T13:07:42.669Z,97.70
2023-04-21T13:10:10.386Z,97.80
2023-04-21T13:12:37.996Z,96.80
2023-04-21T13:15:06.031Z,95.90
2023-04-21T13:17:33.392Z,95.20
2023-04-21T13:20:00.787Z,94.30
2023-04-21T13:22:28.241Z,94.10
2023-04-21T13:24:55.536Z,93.90
2023-04-21T13:27:22.805Z,93.60
2023-04-21T13:29:50.464Z,93.30
2023-04-21T13:32:17.935Z,92.80
2023-04-21T13:34:45.252Z,93.30
2023-04-21T13:37:16.100Z,92.80
2023-04-21T13:39:43.643Z,91.90
2023-04-21T13:42:11.347Z,90.90
2023-04-21T13:44:38.640Z,89.10
2023-04-21T13:47:08.758Z,87.60
2023-04-21T13:49:36.616Z,86.80
2023-04-21T13:52:04.285Z,85.10
2023-04-21T13:54:31.829Z,83.00
2023-04-21T13:56:59.340Z,82.00
2023-04-21T13:59:26.788Z,81.70
2023-04-21T14:01:54.046Z,81.90
2023-04-21T14:04:22.130Z,82.50
2023-04-21T14:06:51.153Z,82.80
2023-04-21T14:09:18.896Z,83.00
2023-04-21T14:11:46.352Z,83.00
2023-04-21T14:16:41.403Z,79.00
2023-04-21T14:19:10.225Z,76.90
2023-04-21T14:21:37.728Z,73.80
2023-04-21T14:24:05.166Z,71.10
2023-04-21T14:26:32.850Z,69.10
2023-04-21T14:29:01.452Z,67.20
2023-04-21T14:31:29.264Z,65.10
2023-04-21T14:33:56.663Z,61.90
2023-04-21T14:36:24.029Z,60.40
2023-04-21T14:38:51.295Z,59.70
2023-04-21T14:41:18.782Z,58.40
2023-04-21T14:43:47.714Z,57.00
2023-04-21T14:46:16.920Z,56.30
2023-04-21T14:48:44.694Z,55.20
2023-04-21T14:51:12.018Z,53.70
2023-04-21T14:53:40.620Z,51.20
2023-04-21T14:56:08.176Z,49.50
2023-04-21T14:58:38.057Z,47.90
2023-04-21T15:01:05.568Z,47.60
2023-04-21T15:03:32.943Z,46.20
2023-04-21T15:06:00.383Z,44.70
2023-04-21T15:08:27.732Z,44.70
2023-04-21T15:10:55.041Z,44.20
2023-04-21T15:13:22.807Z,44.00
2023-04-21T15:15:52.162Z,44.10
2023-04-21T15:18:20.925Z,43.40
2023-04-21T15:20:48.615Z,42.30
2023-04-21T15:23:16.163Z,42.50
2023-04-21T15:25:43.495Z,43.60
2023-04-21T15:28:11.181Z,44.80
2023-04-21T15:30:38.518Z,46.30
2023-04-21T15:33:06.013Z,47.20
2023-04-21T15:35:33.444Z,48.40
2023-04-21T15:38:00.806Z,48.90
2023-04-21T15:40:28.212Z,48.80
2023-04-21T15:42:55.525Z,48.90
2023-04-21T15:45:22.990Z,48.60
2023-04-21T15:47:50.306Z,49.00
2023-04-21T15:50:17.894Z,49.00
2023-04-21T15:52:45.297Z,48.50
2023-04-21T15:55:12.781Z,47.70
2023-04-21T15:57:40.089Z,47.70
2023-04-21T16:00:10.142Z,48.20
2023-04-21T16:02:38.093Z,49.00
2023-04-21T16:05:06.219Z,49.80
2023-04-21T16:07:33.670Z,50.90
2023-04-21T16:10:01.054Z,51.60
2023-04-21T16:12:28.542Z,51.70
2023-04-21T16:15:01.687Z,52.30
2023-04-21T16:17:36.794Z,52.80
2023-04-21T16:20:05.593Z,53.90
2023-04-21T16:22:32.994Z,54.80
2023-04-21T16:25:00.936Z,55.50
2023-04-21T16:27:28.313Z,56.10
2023-04-21T16:29:55.905Z,56.40
2023-04-21T16:32:23.236Z,56.90
2023-04-21T16:34:50.667Z,57.30
2023-04-21T16:37:18.051Z,57.90
2023-04-21T16:39:46.101Z,58.40
2023-04-21T16:42:13.428Z,58.90
2023-04-21T16:44:46.093Z,59.60
2023-04-21T16:47:13.598Z,60.30
2023-04-21T16:49:42.316Z,61.20
2023-04-21T16:52:17.360Z,61.40
2023-04-21T16:54:44.917Z,61.80
2023-04-21T16:57:12.646Z,62.30
2023-04-21T16:59:40.690Z,62.40
2023-04-21T17:02:08.074Z,62.50
2023-04-21T17:04:37.671Z,62.90
2023-04-21T17:07:06.271Z,63.40
2023-04-21T17:09:33.698Z,63.90
2023-04-21T17:12:01.240Z,64.40
2023-04-21T17:14:28.898Z,65.00
2023-04-21T17:16:56.446Z,65.20
2023-04-21T17:19:24.370Z,65.70
2023-04-21T17:21:51.601Z,65.80
2023-04-21T17:24:19.068Z,66.20
2023-04-21T17:26:46.740Z,66.40
2023-04-21T17:29:14.228Z,66.70
2023-04-21T17:31:41.517Z,67.10
2023-04-21T17:34:08.851Z,67.40
2023-04-21T17:36:36.297Z,67.80
2023-04-21T17:39:03.591Z,68.20
2023-04-21T17:41:31.046Z,68.30
2023-04-21T17:43:58.712Z,68.20
2023-04-21T17:46:26.381Z,68.40
2023-04-21T17:48:54.053Z,69.10
2023-04-21T17:51:21.393Z,68.70
2023-04-21T17:53:48.665Z,68.90
2023-04-21T17:56:16.081Z,68.90
2023-04-21T17:58:43.418Z,69.20
2023-04-21T18:01:10.912Z,69.40
2023-04-21T18:03:41.317Z,69.60
2023-04-21T18:06:11.243Z,70.00
2023-04-21T18:08:38.627Z,70.30
2023-04-21T18:11:06.266Z,70.70
2023-04-21T18:13:34.033Z,71.00
2023-04-21T18:16:01.772Z,71.30
2023-04-21T18:18:29.177Z,71.70
2023-04-21T18:20:56.461Z,71.90
2023-04-21T18:23:24.026Z,72.30
2023-04-21T18:25:51.568Z,72.60
2023-04-21T18:28:18.874Z,72.80
2023-04-21T18:30:46.849Z,73.20
2023-04-21T18:33:14.123Z,73.50
2023-04-21T18:35:42.197Z,73.90
2023-04-21T18:38:11.497Z,74.40
2023-04-21T18:40:40.401Z,74.90
2023-04-21T18:43:09.662Z,75.00
2023-04-21T18:45:37.476Z,75.40
2023-04-21T18:48:05.522Z,75.70
2023-04-21T18:50:35.222Z,75.90
2023-04-21T18:53:04.088Z,76.10
2023-04-21T18:55:36.122Z,75.60
2023-04-21T18:58:03.886Z,75.60
2023-04-21T19:00:32.291Z,76.80
2023-04-21T19:03:01.054Z,78.60
2023-04-21T19:05:31.091Z,80.90
2023-04-21T19:07:58.987Z,81.90
2023-04-21T19:10:27.007Z,83.50
2023-04-21T19:12:54.724Z,86.40
2023-04-21T19:15:22.619Z,88.90
2023-04-21T19:17:49.849Z,90.80
2023-04-21T19:20:18.228Z,92.50
2023-04-21T19:22:45.760Z,94.00
2023-04-21T19:25:13.018Z,95.00
2023-04-21T19:27:41.388Z,96.00
2023-04-21T19:30:09.408Z,96.70
2023-04-21T19:32:36.767Z,97.50
2023-04-21T19:35:04.243Z,98.40
2023-04-21T19:37:33.602Z,99.20
2023-04-21T19:40:03.187Z,99.90
2023-04-21T19:42:30.590Z,99.90
2023-04-21T19:44:57.893Z,99.90
2023-04-21T19:47:25.196Z,99.90
2023-04-21T19:49:52.508Z,99.90
2023-04-21T19:52:19.827Z,99.90
2023-04-21T19:54:47.068Z,99.90
2023-04-21T19:57:14.433Z,99.90
2023-04-21T19:59:41.731Z,99.90
2023-04-21T20:02:09.595Z,99.90
2023-04-21T20:04:37.515Z,99.90
2023-04-21T20:07:05.111Z,99.90
2023-04-21T20:09:32.418Z,99.90
2023-04-21T20:11:59.644Z,99.90
2023-04-21T20:14:27.154Z,99.90
2023-04-21T20:16:54.381Z,99.90
2023-04-21T20:19:23.044Z,99.90
2023-04-21T20:21:50.308Z,99.90
2023-04-21T20:24:17.532Z,99.90
2023-04-21T20:26:45.946Z,99.90
2023-04-21T20:29:13.236Z,99.90
2023-04-21T20:31:41.226Z,99.90
2023-04-21T20:34:08.684Z,99.90
2023-04-21T20:36:36.941Z,99.90
2023-04-21T20:39:07.288Z,99.90
2023-04-21T20:41:34.507Z,99.90
2023-04-21T20:44:01.710Z,99.90
2023-04-21T20:46:29.915Z,99.90
2023-04-21T20:48:57.157Z,99.90
2023-04-21T20:51:24.651Z,99.90
2023-04-21T20:53:51.876Z,99.90
2023-04-21T20:56:19.346Z,99.90
2023-04-21T20:58:47.836Z,99.90
2023-04-21T21:01:15.073Z,99.90
2023-04-21T21:03:42.420Z,99.90
2023-04-21T21:06:10.529Z,99.90
2023-04-21T21:08:37.820Z,99.90
2023-04-21T21:11:06.313Z,99.90
2023-04-21T21:13:33.617Z,99.90
2023-04-21T21:16:00.796Z,99.90
2023-04-21T21:18:28.528Z,99.90
2023-04-21T21:20:55.919Z,99.90
2023-04-21T21:23:23.175Z,99.90
2023-04-21T21:25:50.837Z,99.90
2023-04-21T21:28:18.981Z,99.90
2023-04-21T21:30:46.273Z,99.90
2023-04-21T21:33:13.690Z,99.90
2023-04-21T21:35:41.841Z,99.90
2023-04-21T21:38:09.320Z,99.90
2023-04-21T21:40:36.699Z,99.90
2023-04-21T21:43:04.006Z,99.90
2023-04-21T21:45:31.478Z,99.90
2023-04-21T21:47:58.781Z,99.90
2023-04-21T21:50:26.696Z,99.90
2023-04-21T21:52:53.991Z,99.90
2023-04-21T21:55:21.320Z,99.90
2023-04-21T21:57:48.567Z,99.90
2023-04-21T22:00:16.108Z,99.90
2023-04-21T22:02:43.595Z,99.90
2023-04-21T22:05:11.639Z,99.90
2023-04-21T22:07:43.042Z,99.90
2023-04-21T22:10:11.387Z,99.90
2023-04-21T22:12:38.981Z,99.90
2023-04-21T22:15:06.875Z,99.90
2023-04-21T22:17:37.937Z,99.90
2023-04-21T22:20:08.230Z,99.90
2023-04-21T22:22:35.903Z,99.90
2023-04-21T22:25:03.417Z,99.90
2023-04-21T22:27:33.193Z,99.90
2023-04-21T22:30:03.547Z,99.90
2023-04-21T22:32:32.200Z,99.90
2023-04-21T22:35:00.017Z,99.90
2023-04-21T22:37:27.922Z,99.90
2023-04-21T22:39:57.499Z,99.90
2023-04-21T22:42:24.973Z,99.90
2023-04-21T22:44:52.421Z,99.90
2023-04-21T22:47:20.481Z,99.90
2023-04-21T22:49:47.784Z,99.90
2023-04-21T22:52:15.057Z,99.90
2023-04-21T22:54:42.409Z,99.90
2023-04-21T22:57:09.718Z,99.90
2023-04-21T22:59:37.143Z,99.90
2023-04-21T23:02:05.685Z,99.90
2023-04-21T23:04:33.102Z,99.90
2023-04-21T23:07:00.396Z,99.90
2023-04-21T23:09:27.653Z,99.90
2023-04-21T23:11:54.955Z,99.90
2023-04-21T23:14:22.216Z,99.90
2023-04-21T23:16:49.487Z,99.90
2023-04-21T23:19:16.919Z,99.90
2023-04-21T23:21:44.423Z,99.90
2023-04-21T23:24:11.679Z,99.90
2023-04-21T23:26:38.991Z,99.90
2023-04-21T23:29:06.295Z,99.90
2023-04-21T23:31:33.569Z,99.90
2023-04-21T23:34:01.000Z,99.90
2023-04-21T23:36:28.257Z,99.90
2023-04-21T23:38:55.999Z,99.90
2023-04-21T23:41:23.428Z,99.90
2023-04-21T23:43:50.627Z,99.90
2023-04-21T23:46:17.898Z,99.90
2023-04-21T23:48:45.321Z,99.90
2023-04-21T23:51:12.809Z,99.90
2023-04-21T23:53:40.337Z,99.90
2023-04-21T23:56:07.664Z,99.90
2023-04-21T23:58:34.870Z,99.90
